createdAt,value
2019-01-31T00:01:55.973Z,-1.12
2019-01-31T00:04:56.405Z,-1.13
2019-01-31T00:08:10.487Z,-1.08
2019-01-31T00:11:07.706Z,-1.17
2019-01-31T00:14:11.380Z,-1.23
2019-01-31T00:17:13.069Z,-1.25
2019-01-31T00:20:10.805Z,-1.28
2019-01-31T00:23:10.524Z,-1.26
2019-01-31T00:26:48.081Z,-1.30
2019-01-31T00:29:37.817Z,-1.30
2019-01-31T00:32:37.132Z,-1.34
2019-01-31T00:41:49.990Z,-1.37
2019-01-31T00:44:45.283Z,-1.39
2019-01-31T00:47:55.261Z,-1.35
2019-01-31T00:50:32.669Z,-1.33
2019-01-31T00:53:25.396Z,-1.31
2019-01-31T00:56:26.747Z,-1.31
2019-01-31T00:59:19.723Z,-1.36
2019-01-31T01:02:12.015Z,-1.30
2019-01-31T01:05:25.639Z,-1.25
2019-01-31T01:08:47.984Z,-1.26
2019-01-31T01:11:46.093Z,-1.26
2019-01-31T01:14:34.954Z,-1.22
2019-01-31T01:17:14.641Z,-1.22
2019-01-31T01:20:19.108Z,-1.22
2019-01-31T01:23:15.975Z,-1.15
2019-01-31T01:25:58.464Z,-1.12
2019-01-31T01:29:03.287Z,-1.16
2019-01-31T01:32:15.419Z,-1.16
2019-01-31T01:35:46.526Z,-1.11
2019-01-31T01:38:40.915Z,-1.11
2019-01-31T01:41:37.477Z,-1.04
2019-01-31T01:44:50.580Z,-1.08
2019-01-31T01:47:36.471Z,-1.08
2019-01-31T01:50:34.142Z,-1.15
2019-01-31T01:53:27.599Z,-1.18
2019-01-31T01:56:28.276Z,-1.18
2019-01-31T01:59:28.568Z,-1.15
2019-01-31T02:02:33.438Z,-1.12
2019-01-31T02:05:13.790Z,-1.17
2019-01-31T02:08:04.253Z,-1.16
2019-01-31T02:11:08.571Z,-1.17
2019-01-31T02:13:58.943Z,-1.16
2019-01-31T02:17:06.893Z,-1.13
2019-01-31T02:20:16.419Z,-1.13
2019-01-31T02:23:10.293Z,-1.09
2019-01-31T02:26:10.807Z,-1.06
2019-01-31T02:29:16.687Z,-1.08
2019-01-31T02:32:13.037Z,-1.09
2019-01-31T02:35:14.020Z,-1.09
2019-01-31T02:38:11.014Z,-1.10
2019-01-31T02:41:03.992Z,-1.13
2019-01-31T02:44:09.594Z,-1.08
2019-01-31T02:47:08.233Z,-1.12
2019-01-31T02:49:51.779Z,-1.13
2019-01-31T02:53:07.808Z,-1.09
2019-01-31T02:55:52.085Z,-1.13
2019-01-31T02:59:11.152Z,-1.20
2019-01-31T03:02:14.860Z,-1.16
2019-01-31T03:05:16.247Z,-1.16
2019-01-31T03:08:27.827Z,-1.13
2019-01-31T03:11:06.456Z,-1.27
2019-01-31T03:13:49.814Z,-1.26
2019-01-31T03:16:59.525Z,-1.17
2019-01-31T03:20:05.769Z,-1.12
2019-01-31T03:23:11.673Z,-1.09
2019-01-31T03:26:02.770Z,-1.11
2019-01-31T03:28:41.481Z,-1.12
2019-01-31T03:31:44.895Z,-1.14
2019-01-31T03:34:41.424Z,-1.12
2019-01-31T03:37:39.181Z,-1.03
2019-01-31T03:40:25.271Z,-1.07
2019-01-31T03:43:23.953Z,-0.98
2019-01-31T03:46:12.830Z,-0.90
2019-01-31T03:48:47.775Z,-0.94
2019-01-31T03:51:35.818Z,-0.95
2019-01-31T03:54:43.403Z,-0.93
2019-01-31T03:57:37.555Z,-0.90
2019-01-31T04:00:38.362Z,-0.86
2019-01-31T04:03:39.361Z,-0.85
2019-01-31T04:06:17.780Z,-0.88
2019-01-31T04:08:46.216Z,-0.88
2019-01-31T04:11:15.097Z,-0.90
2019-01-31T04:13:43.808Z,-0.88
2019-01-31T04:16:12.591Z,-0.93
2019-01-31T04:18:41.380Z,-0.96
2019-01-31T04:21:09.838Z,-1.02
2019-01-31T04:23:38.291Z,-1.05
2019-01-31T04:26:09.161Z,-1.08
2019-01-31T04:28:37.897Z,-1.12
2019-01-31T04:31:06.761Z,-1.17
2019-01-31T04:33:35.199Z,-1.27
2019-01-31T04:36:03.725Z,-1.33
2019-01-31T04:38:32.162Z,-1.39
2019-01-31T04:41:00.607Z,-1.42
2019-01-31T04:43:29.045Z,-1.47
2019-01-31T04:45:57.500Z,-1.52
2019-01-31T04:48:26.333Z,-1.53
2019-01-31T04:50:54.768Z,-1.50
2019-01-31T04:53:23.210Z,-1.58
2019-01-31T04:55:51.968Z,-1.66
2019-01-31T04:58:20.960Z,-1.72
2019-01-31T05:00:49.400Z,-1.78
2019-01-31T05:03:17.839Z,-1.86
2019-01-31T05:05:46.278Z,-1.91
2019-01-31T05:08:14.990Z,-2.01
2019-01-31T05:10:43.587Z,-2.05
2019-01-31T05:13:12.066Z,-2.12
2019-01-31T05:15:40.797Z,-2.14
2019-01-31T05:18:09.745Z,-2.21
2019-01-31T05:20:38.485Z,-2.34
2019-01-31T05:23:06.964Z,-2.37
2019-01-31T05:25:35.382Z,-2.26
2019-01-31T05:28:04.160Z,-2.27
2019-01-31T05:30:32.608Z,-2.28
2019-01-31T05:33:01.746Z,-2.30
2019-01-31T05:35:30.189Z,-2.32
2019-01-31T05:37:58.632Z,-2.31
2019-01-31T05:40:27.386Z,-2.35
2019-01-31T05:42:56.182Z,-2.33
2019-01-31T05:45:24.870Z,-2.38
2019-01-31T05:47:53.649Z,-2.42
2019-01-31T05:50:22.434Z,-2.43
2019-01-31T05:52:50.886Z,-2.51
2019-01-31T05:55:19.346Z,-2.56
2019-01-31T05:57:47.792Z,-2.63
2019-01-31T06:00:20.218Z,-2.65
2019-01-31T06:02:48.685Z,-2.72
2019-01-31T06:05:17.132Z,-2.73
2019-01-31T06:07:46.102Z,-2.79
2019-01-31T06:10:14.548Z,-2.84
2019-01-31T06:12:42.998Z,-2.87
2019-01-31T06:15:13.755Z,-2.84
2019-01-31T06:17:42.196Z,-2.91
2019-01-31T06:20:12.936Z,-2.96
2019-01-31T06:22:41.855Z,-2.95
2019-01-31T06:25:10.323Z,-2.97
2019-01-31T06:27:38.762Z,-2.97
2019-01-31T06:30:08.293Z,-2.95
2019-01-31T06:32:36.766Z,-2.82
2019-01-31T06:35:05.867Z,-2.76
2019-01-31T06:37:34.368Z,-2.79
2019-01-31T06:40:03.070Z,-2.84
2019-01-31T06:42:31.509Z,-2.76
2019-01-31T06:44:59.950Z,-2.71
2019-01-31T06:47:28.656Z,-2.70
2019-01-31T06:49:57.104Z,-2.66
2019-01-31T06:52:25.832Z,-2.72
2019-01-31T06:54:54.589Z,-2.78
2019-01-31T06:57:23.044Z,-2.75
2019-01-31T06:59:51.849Z,-2.72
2019-01-31T07:02:20.567Z,-2.70
2019-01-31T07:04:49.349Z,-2.68
2019-01-31T07:07:18.037Z,-2.68
2019-01-31T07:09:46.488Z,-2.65
2019-01-31T07:12:14.995Z,-2.72
2019-01-31T07:14:43.443Z,-2.68
2019-01-31T07:17:12.472Z,-2.68
2019-01-31T07:19:41.263Z,-2.72
2019-01-31T07:22:10.061Z,-2.73
2019-01-31T07:24:38.774Z,-2.68
2019-01-31T07:27:07.263Z,-2.74
2019-01-31T07:29:35.711Z,-2.70
2019-01-31T07:32:04.504Z,-2.70
2019-01-31T07:34:33.485Z,-2.67
2019-01-31T07:37:01.924Z,-2.68
2019-01-31T07:39:30.379Z,-2.72
2019-01-31T07:41:59.120Z,-2.73
2019-01-31T07:44:27.648Z,-2.73
2019-01-31T07:46:56.386Z,-2.73
2019-01-31T07:49:25.190Z,-2.75
2019-01-31T07:51:53.604Z,-2.76
2019-01-31T07:54:22.058Z,-2.78
2019-01-31T07:56:50.603Z,-2.71
2019-01-31T07:59:19.614Z,-2.66
2019-01-31T08:01:48.711Z,-2.62
2019-01-31T08:04:17.159Z,-2.62
2019-01-31T08:06:45.588Z,-2.62
2019-01-31T08:09:14.355Z,-2.56
2019-01-31T08:11:52.354Z,-2.58
2019-01-31T08:14:13.777Z,-2.57
2019-01-31T08:16:42.219Z,-2.56
2019-01-31T08:19:10.667Z,-2.51
2019-01-31T08:21:41.058Z,-2.44
2019-01-31T08:24:09.712Z,-2.45
2019-01-31T08:26:38.538Z,-2.41
2019-01-31T08:29:07.014Z,-2.25
2019-01-31T08:31:35.829Z,-2.10
2019-01-31T08:34:04.595Z,-2.04
2019-01-31T08:36:33.111Z,-1.97
2019-01-31T08:39:01.883Z,-1.86
2019-01-31T08:41:30.401Z,-1.83
2019-01-31T08:43:58.830Z,-1.82
2019-01-31T08:46:27.279Z,-1.59
2019-01-31T08:48:55.704Z,-1.36
2019-01-31T08:51:24.166Z,-1.10
2019-01-31T08:53:52.957Z,-0.85
2019-01-31T08:56:21.423Z,-0.67
2019-01-31T08:58:49.847Z,-0.65
2019-01-31T09:01:18.528Z,-0.56
2019-01-31T09:03:47.588Z,-0.74
2019-01-31T09:06:16.274Z,-0.55
2019-01-31T09:08:44.707Z,-0.62
2019-01-31T09:11:13.183Z,-0.32
2019-01-31T09:13:41.918Z,0.07
2019-01-31T09:16:10.362Z,0.83
2019-01-31T09:18:38.800Z,1.87
2019-01-31T09:21:34.955Z,2.32
2019-01-31T09:24:35.152Z,2.61
2019-01-31T09:27:48.157Z,3.30
2019-01-31T09:30:58.352Z,4.03
2019-01-31T09:33:42.070Z,3.32
2019-01-31T09:36:40.069Z,2.46
2019-01-31T09:39:35.047Z,1.59
2019-01-31T09:42:30.791Z,0.70
2019-01-31T09:45:39.794Z,0.03
2019-01-31T09:48:22.758Z,-0.34
2019-01-31T09:51:38.298Z,-0.37
2019-01-31T09:54:14.453Z,-0.31
2019-01-31T09:57:06.919Z,-0.18
2019-01-31T10:00:07.543Z,-0.09
2019-01-31T10:03:09.284Z,0.08
2019-01-31T10:06:16.974Z,0.56
2019-01-31T10:08:55.218Z,0.88
2019-01-31T10:11:48.502Z,1.14
2019-01-31T10:14:56.772Z,2.41
2019-01-31T10:17:58.326Z,3.01
2019-01-31T10:20:33.823Z,4.01
2019-01-31T10:23:30.245Z,6.45
2019-01-31T10:27:07.522Z,6.81
2019-01-31T10:29:58.131Z,7.61
2019-01-31T10:32:51.700Z,8.15
2019-01-31T10:36:05.801Z,7.67
2019-01-31T10:39:13.259Z,6.89
2019-01-31T10:42:07.119Z,4.41
2019-01-31T10:45:26.612Z,4.41
2019-01-31T10:48:45.806Z,3.92
2019-01-31T10:51:50.263Z,3.21
2019-01-31T10:54:36.449Z,3.09
2019-01-31T10:57:59.577Z,3.35
2019-01-31T11:01:07.476Z,3.49
2019-01-31T11:04:06.096Z,2.87
2019-01-31T11:07:06.769Z,3.02
2019-01-31T11:10:19.857Z,3.24
2019-01-31T11:13:28.950Z,3.56
2019-01-31T11:16:14.700Z,3.57
2019-01-31T11:19:33.304Z,3.71
2019-01-31T11:22:33.823Z,3.71
2019-01-31T11:25:11.433Z,3.83
2019-01-31T11:28:15.315Z,3.99
2019-01-31T11:31:01.597Z,3.87
2019-01-31T11:34:13.475Z,5.51
2019-01-31T11:37:08.989Z,7.16
2019-01-31T11:39:45.593Z,6.96
2019-01-31T11:42:34.950Z,8.10
2019-01-31T11:45:15.622Z,8.15
2019-01-31T11:48:11.009Z,7.27
2019-01-31T11:51:15.535Z,7.53
2019-01-31T11:54:12.210Z,8.37
2019-01-31T11:57:25.364Z,8.58
2019-01-31T11:59:53.881Z,8.49
2019-01-31T12:02:22.409Z,8.28
2019-01-31T12:04:50.856Z,8.59
2019-01-31T12:07:19.346Z,8.69
2019-01-31T12:09:48.313Z,9.74
2019-01-31T12:12:16.750Z,9.61
2019-01-31T12:14:45.521Z,9.34
2019-01-31T12:17:13.948Z,8.51
2019-01-31T12:19:42.652Z,8.33
2019-01-31T12:22:11.092Z,8.74
2019-01-31T12:24:39.827Z,8.77
2019-01-31T12:27:08.250Z,7.60
2019-01-31T12:29:36.689Z,7.12
2019-01-31T12:32:07.519Z,6.85
2019-01-31T12:34:36.618Z,6.27
2019-01-31T12:37:05.869Z,5.74
2019-01-31T12:39:34.311Z,6.03
2019-01-31T12:42:03.480Z,6.26
2019-01-31T12:44:31.927Z,6.25
2019-01-31T12:47:00.348Z,5.19
2019-01-31T12:49:29.442Z,4.88
2019-01-31T12:51:57.867Z,4.94
2019-01-31T12:54:26.628Z,4.28
2019-01-31T12:56:55.286Z,3.96
2019-01-31T12:59:27.000Z,3.65
2019-01-31T13:01:55.932Z,3.56
2019-01-31T13:04:24.366Z,3.52
2019-01-31T13:06:52.775Z,3.23
2019-01-31T13:09:21.204Z,2.96
2019-01-31T13:11:49.881Z,3.25
2019-01-31T13:14:18.311Z,3.07
2019-01-31T13:16:47.032Z,2.88
2019-01-31T13:19:15.429Z,2.80
2019-01-31T13:21:43.859Z,2.46
2019-01-31T13:24:12.592Z,2.30
2019-01-31T13:26:41.030Z,2.18
2019-01-31T13:29:09.754Z,2.48
2019-01-31T13:31:38.837Z,2.90
2019-01-31T13:34:07.520Z,2.67
2019-01-31T13:36:35.961Z,2.71
2019-01-31T13:39:10.809Z,2.40
2019-01-31T13:41:41.803Z,2.49
2019-01-31T13:44:09.451Z,2.50
2019-01-31T13:46:37.876Z,2.54
2019-01-31T13:49:06.298Z,2.36
2019-01-31T13:51:34.727Z,2.04
2019-01-31T13:54:03.283Z,2.01
2019-01-31T13:56:31.658Z,2.07
2019-01-31T13:59:00.581Z,2.20
2019-01-31T14:01:29.033Z,2.06
2019-01-31T14:03:57.512Z,1.93
2019-01-31T14:06:25.937Z,1.82
2019-01-31T14:08:54.654Z,1.79
2019-01-31T14:11:23.132Z,1.80
2019-01-31T14:13:51.620Z,1.82
2019-01-31T14:16:20.131Z,1.80
2019-01-31T14:18:48.880Z,1.82
2019-01-31T14:21:17.312Z,1.83
2019-01-31T14:23:45.749Z,1.87
2019-01-31T14:26:14.187Z,1.86
2019-01-31T14:28:42.596Z,2.00
2019-01-31T14:31:11.287Z,2.07
2019-01-31T14:33:40.005Z,2.16
2019-01-31T14:36:08.435Z,2.25
2019-01-31T14:38:36.860Z,2.40
2019-01-31T14:41:05.286Z,2.42
2019-01-31T14:43:33.825Z,2.49
2019-01-31T14:46:02.257Z,2.28
2019-01-31T14:48:30.796Z,2.24
2019-01-31T14:50:59.537Z,2.16
2019-01-31T14:53:27.972Z,2.25
2019-01-31T14:55:56.704Z,2.24
2019-01-31T14:58:25.141Z,2.06
2019-01-31T15:00:53.881Z,2.17
2019-01-31T15:03:22.314Z,2.25
2019-01-31T15:05:50.741Z,2.21
2019-01-31T15:08:19.166Z,2.15
2019-01-31T15:10:47.588Z,2.24
2019-01-31T15:13:16.044Z,2.27
2019-01-31T15:15:44.468Z,2.32
2019-01-31T15:18:13.236Z,2.38
2019-01-31T15:20:44.844Z,2.41
2019-01-31T15:23:13.240Z,2.62
2019-01-31T15:25:42.073Z,2.58
2019-01-31T15:28:10.549Z,2.39
2019-01-31T15:30:38.964Z,2.30
2019-01-31T15:33:09.692Z,2.16
2019-01-31T15:35:38.125Z,2.09
2019-01-31T15:38:06.817Z,2.02
2019-01-31T15:40:40.544Z,1.86
2019-01-31T15:43:09.310Z,1.82
2019-01-31T15:45:38.051Z,1.77
2019-01-31T15:48:06.897Z,1.67
2019-01-31T15:50:35.312Z,1.56
2019-01-31T15:53:04.071Z,1.45
2019-01-31T15:55:33.718Z,1.41
2019-01-31T15:58:02.519Z,1.36
2019-01-31T16:00:40.964Z,1.26
2019-01-31T16:03:20.558Z,1.14
2019-01-31T16:05:49.072Z,1.10
2019-01-31T16:08:17.881Z,1.02
2019-01-31T16:10:46.358Z,0.92
2019-01-31T16:13:14.801Z,0.83
2019-01-31T16:15:44.201Z,0.81
2019-01-31T16:18:13.332Z,0.72
2019-01-31T16:20:41.808Z,0.64
2019-01-31T16:23:11.061Z,0.62
2019-01-31T16:25:39.495Z,0.61
2019-01-31T16:28:08.298Z,0.59
2019-01-31T16:30:36.973Z,0.63
2019-01-31T16:33:05.929Z,0.67
2019-01-31T16:35:35.077Z,0.65
2019-01-31T16:38:03.846Z,0.68
2019-01-31T16:40:32.268Z,0.70
2019-01-31T16:43:00.703Z,0.63
2019-01-31T16:45:29.136Z,0.61
2019-01-31T16:47:57.872Z,0.61
2019-01-31T16:50:26.298Z,0.60
2019-01-31T16:52:55.022Z,0.61
2019-01-31T16:55:24.935Z,0.62
2019-01-31T16:57:53.311Z,0.60
2019-01-31T17:00:27.092Z,0.57
2019-01-31T17:02:55.514Z,0.55
2019-01-31T17:05:26.138Z,0.53
2019-01-31T17:07:54.554Z,0.55
2019-01-31T17:10:22.984Z,0.54
2019-01-31T17:12:51.431Z,0.52
2019-01-31T17:15:20.187Z,0.51
2019-01-31T17:17:48.635Z,0.49
2019-01-31T17:20:19.731Z,0.47
2019-01-31T17:22:48.495Z,0.47
2019-01-31T17:25:17.183Z,0.44
2019-01-31T17:27:45.636Z,0.42
2019-01-31T17:30:17.031Z,0.40
2019-01-31T17:32:45.776Z,0.38
2019-01-31T17:35:14.572Z,0.41
2019-01-31T17:37:43.025Z,0.39
2019-01-31T17:40:17.840Z,0.43
2019-01-31T17:42:46.257Z,0.49
2019-01-31T17:45:15.902Z,0.45
2019-01-31T17:47:44.335Z,0.44
2019-01-31T17:50:13.086Z,0.46
2019-01-31T17:52:41.611Z,0.46
2019-01-31T17:55:11.715Z,0.39
2019-01-31T17:57:40.151Z,0.38
2019-01-31T18:00:38.688Z,0.39
2019-01-31T18:03:07.187Z,0.37
2019-01-31T18:05:35.665Z,0.37
2019-01-31T18:08:04.661Z,0.36
2019-01-31T18:10:33.341Z,0.34
2019-01-31T18:13:01.773Z,0.33
2019-01-31T18:15:41.248Z,0.31
2019-01-31T18:18:02.779Z,0.31
2019-01-31T18:20:31.208Z,0.29
2019-01-31T18:22:59.943Z,0.30
2019-01-31T18:25:28.394Z,0.34
2019-01-31T18:27:57.237Z,0.31
2019-01-31T18:30:27.058Z,0.31
2019-01-31T18:32:55.518Z,0.33
2019-01-31T18:35:24.289Z,0.30
2019-01-31T18:37:52.729Z,0.31
2019-01-31T18:40:29.216Z,0.31
2019-01-31T18:42:57.636Z,0.31
2019-01-31T18:45:27.765Z,0.32
2019-01-31T18:47:58.602Z,0.30
2019-01-31T18:50:29.365Z,0.30
2019-01-31T18:52:57.728Z,0.32
2019-01-31T18:55:26.429Z,0.27
2019-01-31T18:57:54.847Z,0.25
2019-01-31T19:00:31.784Z,0.21
2019-01-31T19:03:00.219Z,0.19
2019-01-31T19:05:28.662Z,0.13
2019-01-31T19:07:57.437Z,0.14
2019-01-31T19:10:26.144Z,0.19
2019-01-31T19:12:54.586Z,0.17
2019-01-31T19:15:26.053Z,0.12
2019-01-31T19:18:04.957Z,0.16
2019-01-31T19:20:26.565Z,0.15
2019-01-31T19:22:56.213Z,0.14
2019-01-31T19:25:24.667Z,0.10
2019-01-31T19:27:53.127Z,0.17
2019-01-31T19:30:33.267Z,0.15
2019-01-31T19:33:02.089Z,0.12
2019-01-31T19:35:30.960Z,0.08
2019-01-31T19:38:01.932Z,0.11
2019-01-31T19:40:31.960Z,0.03
2019-01-31T19:43:00.502Z,0.02
2019-01-31T19:45:31.517Z,0.00
2019-01-31T19:48:00.416Z,-0.02
2019-01-31T19:50:28.896Z,-0.04
2019-01-31T19:52:57.509Z,-0.01
2019-01-31T19:55:27.017Z,0.00
2019-01-31T19:57:56.069Z,-0.02
2019-01-31T20:00:24.774Z,-0.03
2019-01-31T20:02:53.546Z,-0.02
2019-01-31T20:05:22.056Z,-0.04
2019-01-31T20:07:50.715Z,-0.04
2019-01-31T20:10:22.834Z,-0.04
2019-01-31T20:12:51.567Z,-0.04
2019-01-31T20:15:19.997Z,-0.01
2019-01-31T20:17:49.039Z,-0.02
2019-01-31T20:20:22.325Z,-0.05
2019-01-31T20:22:51.878Z,-0.06
2019-01-31T20:25:23.392Z,-0.03
2019-01-31T20:27:53.840Z,0.03
2019-01-31T20:30:24.385Z,0.03
2019-01-31T20:32:52.969Z,0.00
2019-01-31T20:35:21.572Z,0.00
2019-01-31T20:37:50.642Z,-0.02
2019-01-31T20:40:21.652Z,-0.03
2019-01-31T20:42:50.237Z,0.06
2019-01-31T20:45:18.665Z,0.03
2019-01-31T20:47:47.263Z,0.00
2019-01-31T20:50:18.377Z,0.02
2019-01-31T20:55:21.305Z,0.01
2019-01-31T20:57:50.124Z,0.02
2019-01-31T21:00:22.863Z,0.07
2019-01-31T21:02:52.252Z,0.05
2019-01-31T21:05:20.748Z,0.04
2019-01-31T21:07:49.441Z,0.03
2019-01-31T21:10:18.111Z,0.05
2019-01-31T21:12:46.969Z,0.04
2019-01-31T21:15:18.105Z,0.02
2019-01-31T21:17:46.981Z,0.00
2019-01-31T21:20:16.635Z,-0.02
2019-01-31T21:22:45.530Z,-0.05
2019-01-31T21:25:14.520Z,-0.06
2019-01-31T21:27:43.086Z,-0.08
2019-01-31T21:30:20.301Z,-0.07
2019-01-31T21:32:49.545Z,-0.09
2019-01-31T21:35:18.739Z,-0.14
2019-01-31T21:37:47.208Z,-0.22
2019-01-31T21:40:15.948Z,-0.27
2019-01-31T21:42:44.398Z,-0.39
2019-01-31T21:45:14.441Z,-0.49
2019-01-31T21:47:43.002Z,-0.65
2019-01-31T21:50:13.727Z,-0.78
2019-01-31T21:52:42.147Z,-0.85
2019-01-31T21:55:11.343Z,-0.89
2019-01-31T21:57:39.960Z,-0.98
2019-01-31T22:00:17.809Z,-1.07
2019-01-31T22:02:46.296Z,-1.16
2019-01-31T22:05:14.967Z,-1.24
2019-01-31T22:07:43.467Z,-1.30
2019-01-31T22:10:12.937Z,-1.37
2019-01-31T22:12:41.764Z,-1.43
2019-01-31T22:15:13.740Z,-1.47
2019-01-31T22:17:42.245Z,-1.54
2019-01-31T22:20:11.221Z,-1.60
2019-01-31T22:22:40.016Z,-1.65
2019-01-31T22:25:10.099Z,-1.72
2019-01-31T22:27:38.547Z,-1.79
2019-01-31T22:30:10.965Z,-1.73
2019-01-31T22:32:39.570Z,-1.73
2019-01-31T22:35:29.403Z,-1.76
2019-01-31T22:37:57.988Z,-1.82
2019-01-31T22:40:26.878Z,-1.93
2019-01-31T22:42:55.805Z,-2.02
2019-01-31T22:45:26.918Z,-2.09
2019-01-31T22:47:56.297Z,-2.16
2019-01-31T22:50:24.894Z,-2.22
2019-01-31T22:52:53.636Z,-2.28
2019-01-31T22:55:23.904Z,-2.35
2019-01-31T22:57:52.472Z,-2.41
2019-01-31T23:00:54.502Z,-2.45
2019-01-31T23:03:23.443Z,-2.51
2019-01-31T23:05:51.941Z,-2.58
2019-01-31T23:08:20.386Z,-2.62
2019-01-31T23:10:48.845Z,-2.67
2019-01-31T23:13:17.299Z,-2.71
2019-01-31T23:15:45.766Z,-2.76
2019-01-31T23:18:14.533Z,-2.80
2019-01-31T23:20:44.450Z,-2.85
2019-01-31T23:23:13.317Z,-2.86
2019-01-31T23:25:43.882Z,-2.85
2019-01-31T23:28:12.640Z,-2.86
2019-01-31T23:30:41.086Z,-2.90
2019-01-31T23:33:09.514Z,-2.82
2019-01-31T23:35:37.959Z,-2.80
2019-01-31T23:38:06.668Z,-2.71
2019-01-31T23:40:35.107Z,-2.73
2019-01-31T23:43:03.825Z,-2.75
2019-01-31T23:45:32.262Z,-2.79
2019-01-31T23:48:00.694Z,-2.87
2019-01-31T23:50:29.137Z,-2.84
2019-01-31T23:52:57.801Z,-2.88
2019-01-31T23:55:26.253Z,-2.92
2019-01-31T23:57:54.697Z,-2.89
